createdAt,value
2023-03-30T00:00:00.153Z,86.1
2023-03-30T00:05:00.241Z,86.1
2023-03-30T00:10:00.128Z,86.3
2023-03-30T00:15:00.156Z,86.5
2023-03-30T00:20:00.166Z,86.5
2023-03-30T00:25:00.151Z,86.4
2023-03-30T00:30:00.163Z,86.4
2023-03-30T00:35:00.132Z,86.7
2023-03-30T00:40:00.143Z,87.1
2023-03-30T00:45:00.143Z,87.6
2023-03-30T00:50:00.133Z,87.9
2023-03-30T00:55:00.125Z,88.3
2023-03-30T01:00:00.210Z,88.5
2023-03-30T01:05:00.126Z,88.7
2023-03-30T01:10:00.143Z,88.6
2023-03-30T01:15:00.116Z,88.6
2023-03-30T01:20:00.099Z,88.6
2023-03-30T01:25:00.101Z,88.7
2023-03-30T01:30:00.163Z,88.7
2023-03-30T01:35:00.133Z,88.7
2023-03-30T01:40:00.138Z,88.5
2023-03-30T01:45:00.146Z,88.5
2023-03-30T01:50:00.155Z,88.3
2023-03-30T01:55:00.143Z,88
2023-03-30T02:00:00.198Z,87.8
2023-03-30T02:05:00.106Z,87.6
2023-03-30T02:10:00.162Z,87.7
2023-03-30T02:15:00.180Z,87.7
2023-03-30T02:20:00.107Z,88
2023-03-30T02:25:00.116Z,88.1
2023-03-30T02:30:00.192Z,88.2
2023-03-30T02:35:00.142Z,88.4
2023-03-30T02:40:00.104Z,88.6
2023-03-30T02:45:00.132Z,88.8
2023-03-30T02:50:00.166Z,89
2023-03-30T02:55:00.130Z,89.2
2023-03-30T03:00:00.115Z,89.5
2023-03-30T03:05:00.136Z,89.7
2023-03-30T03:10:00.103Z,90
2023-03-30T03:15:00.149Z,90
2023-03-30T03:20:00.134Z,90.1
2023-03-30T03:25:00.153Z,90.2
2023-03-30T03:30:00.137Z,90.1
2023-03-30T03:35:00.137Z,90.1
2023-03-30T03:40:00.156Z,90.2
2023-03-30T03:45:00.141Z,90.2
2023-03-30T03:50:00.146Z,90.3
2023-03-30T03:55:00.128Z,90.4
2023-03-30T04:00:00.229Z,90.3
2023-03-30T04:05:00.169Z,90.3
2023-03-30T04:10:00.119Z,90.3
2023-03-30T04:15:00.141Z,90.3
2023-03-30T04:20:00.110Z,90.2
2023-03-30T04:25:00.104Z,90
2023-03-30T04:30:00.137Z,89.6
2023-03-30T04:35:00.147Z,88.6
2023-03-30T04:40:00.104Z,87.7
2023-03-30T04:45:00.109Z,87
2023-03-30T04:50:00.119Z,86.4
2023-03-30T04:55:00.139Z,92.5
2023-03-30T05:00:00.109Z,85.7
2023-03-30T05:05:00.142Z,84.3
2023-03-30T05:10:00.190Z,83.3
2023-03-30T05:15:00.155Z,82.7
2023-03-30T05:20:00.116Z,82.4
2023-03-30T05:25:00.124Z,81.4
2023-03-30T05:30:00.149Z,80.5
2023-03-30T05:35:00.131Z,80
2023-03-30T05:40:00.153Z,79.3
2023-03-30T05:45:00.129Z,78.9
2023-03-30T05:50:00.137Z,78.9
2023-03-30T05:55:00.120Z,78.6
2023-03-30T06:00:00.120Z,78.5
2023-03-30T06:05:00.159Z,77.8
2023-03-30T06:10:00.156Z,78
2023-03-30T06:15:00.119Z,77.7
2023-03-30T06:20:00.171Z,77.6
2023-03-30T06:25:00.101Z,77.4
2023-03-30T06:30:00.163Z,77
2023-03-30T06:35:00.139Z,76.5
2023-03-30T06:40:00.119Z,76
2023-03-30T06:45:00.163Z,74.8
2023-03-30T06:50:00.121Z,73.4
2023-03-30T06:55:00.117Z,71.7
2023-03-30T07:00:00.128Z,69.6
2023-03-30T07:05:00.131Z,65.1
2023-03-30T07:10:00.096Z,60.7
2023-03-30T07:15:00.140Z,57.8
2023-03-30T07:20:00.109Z,57.3
2023-03-30T07:25:00.136Z,59.8
2023-03-30T07:30:07.455Z,61
2023-03-30T07:35:00.163Z,61.5
2023-03-30T07:40:00.196Z,61.8
2023-03-30T07:45:00.121Z,62
2023-03-30T07:50:00.167Z,61.6
2023-03-30T07:55:00.145Z,71.8
2023-03-30T08:00:00.119Z,62.2
2023-03-30T08:05:00.419Z,60.9
2023-03-30T08:55:00.131Z,66.2
2023-03-30T09:00:00.141Z,68.2
2023-03-30T09:05:00.183Z,68.9
2023-03-30T09:10:00.124Z,69.6
2023-03-30T09:15:00.218Z,70.1
2023-03-30T09:20:00.141Z,70.6
2023-03-30T09:25:00.113Z,70
2023-03-30T09:30:00.145Z,70.7
2023-03-30T09:35:00.199Z,70.6
2023-03-30T09:40:00.116Z,69.7
2023-03-30T09:45:00.142Z,69.4
2023-03-30T09:50:00.154Z,69.5
2023-03-30T09:55:00.156Z,69.1
2023-03-30T10:00:00.182Z,70.5
2023-03-30T10:05:00.202Z,71.1
2023-03-30T10:10:00.154Z,72
2023-03-30T10:15:00.154Z,72.9
2023-03-30T10:20:07.450Z,72.7
2023-03-30T10:25:00.131Z,73.6
2023-03-30T10:30:00.108Z,73.6
2023-03-30T10:35:00.131Z,71.9
2023-03-30T10:40:00.149Z,71.8
2023-03-30T10:45:00.128Z,68.7
2023-03-30T10:50:00.136Z,67.7
2023-03-30T10:55:00.132Z,67.5
2023-03-30T11:00:00.402Z,67.5
2023-03-30T11:05:00.142Z,68.2
2023-03-30T11:10:00.119Z,68.6
2023-03-30T11:15:00.154Z,68.2
2023-03-30T11:20:00.171Z,68.9
2023-03-30T11:25:00.131Z,66.8
2023-03-30T11:30:00.134Z,65.3
2023-03-30T11:35:00.118Z,63.2
2023-03-30T11:40:00.150Z,61.1
2023-03-30T11:45:00.116Z,61.4
2023-03-30T11:50:00.148Z,61.7
2023-03-30T11:55:03.296Z,60.2
2023-03-30T12:00:00.157Z,60.5
2023-03-30T12:05:00.222Z,61.1
2023-03-30T12:10:02.683Z,61.1
2023-03-30T12:15:00.265Z,61.3
2023-03-30T12:20:00.132Z,61.5
2023-03-30T12:25:00.159Z,61.3
2023-03-30T12:30:02.782Z,61.7
2023-03-30T12:35:00.134Z,61.4
2023-03-30T12:40:00.156Z,61.5
2023-03-30T12:45:00.144Z,61.4
2023-03-30T12:50:00.144Z,61.2
2023-03-30T12:55:00.124Z,60.9
2023-03-30T13:00:00.149Z,58.9
2023-03-30T13:05:00.128Z,58
2023-03-30T13:10:00.154Z,58.9
2023-03-30T13:15:00.129Z,58.2
2023-03-30T13:20:00.151Z,57.8
2023-03-30T13:25:00.141Z,56.6
2023-03-30T13:30:00.174Z,56.9
2023-03-30T13:35:06.592Z,53.2
2023-03-30T13:40:00.162Z,51
2023-03-30T13:45:00.131Z,51
2023-03-30T13:50:00.097Z,50.9
2023-03-30T13:55:00.168Z,50
2023-03-30T14:00:00.138Z,49.2
2023-03-30T14:05:00.117Z,49.5
2023-03-30T14:10:00.150Z,48.9
2023-03-30T14:15:00.147Z,48.1
2023-03-30T14:20:00.167Z,54.7
2023-03-30T14:25:00.202Z,99.9
2023-03-30T14:30:00.099Z,99.6
2023-03-30T14:35:00.236Z,99.9
2023-03-30T14:40:00.173Z,85.4
2023-03-30T14:45:00.114Z,83.3
2023-03-30T14:50:00.122Z,81
2023-03-30T14:55:07.145Z,83.3
2023-03-30T15:00:00.137Z,84.3
2023-03-30T15:05:00.107Z,86.4
2023-03-30T15:10:00.221Z,86.6
2023-03-30T15:15:00.140Z,86.8
2023-03-30T15:20:00.176Z,87.2
2023-03-30T15:25:00.158Z,87.3
2023-03-30T15:30:01.843Z,87.7
2023-03-30T15:35:00.249Z,87.5
2023-03-30T15:40:00.174Z,87.7
2023-03-30T15:45:00.110Z,87.6
2023-03-30T15:50:00.165Z,87.5
2023-03-30T15:55:00.158Z,87.5
2023-03-30T16:00:00.185Z,87.4
2023-03-30T16:05:00.191Z,87.5
2023-03-30T16:10:00.245Z,87.7
2023-03-30T16:15:00.120Z,87.6
2023-03-30T16:20:00.230Z,87.4
2023-03-30T16:25:00.313Z,87.2
2023-03-30T16:30:00.117Z,86.7
2023-03-30T16:35:00.129Z,86.1
2023-03-30T16:40:00.142Z,85.1
2023-03-30T16:45:00.116Z,84.2
2023-03-30T16:50:00.127Z,83.9
2023-03-30T16:55:00.170Z,83.4
2023-03-30T17:00:00.148Z,83.5
2023-03-30T17:05:00.094Z,83.5
2023-03-30T17:10:00.132Z,83
2023-03-30T17:15:00.168Z,83.1
2023-03-30T17:20:00.137Z,83.4
2023-03-30T17:25:00.108Z,84
2023-03-30T17:30:00.142Z,84.6
2023-03-30T17:35:00.139Z,84.9
2023-03-30T17:40:00.088Z,85.3
2023-03-30T17:45:00.104Z,85.7
2023-03-30T17:50:00.158Z,86.4
2023-03-30T17:55:00.197Z,86.8
2023-03-30T18:00:00.206Z,86.7
2023-03-30T18:05:00.120Z,86.6
2023-03-30T18:10:00.122Z,85.4
2023-03-30T18:15:00.125Z,85.3
2023-03-30T18:20:00.158Z,84.5
2023-03-30T18:25:00.112Z,83.8
2023-03-30T18:30:00.147Z,83.6
2023-03-30T18:35:00.132Z,83.4
2023-03-30T18:40:00.131Z,83.5
2023-03-30T18:45:00.158Z,83.9
2023-03-30T18:50:00.111Z,84.2
2023-03-30T18:55:00.180Z,84.9
2023-03-30T19:00:00.155Z,85.9
2023-03-30T19:05:00.141Z,86.8
2023-03-30T19:10:00.160Z,87.8
2023-03-30T19:15:00.133Z,88.7
2023-03-30T19:20:00.120Z,89.4
2023-03-30T19:25:00.118Z,90
2023-03-30T19:30:00.172Z,90.3
2023-03-30T19:35:00.133Z,90.6
2023-03-30T19:40:00.127Z,91.1
2023-03-30T19:45:00.129Z,91.3
2023-03-30T19:50:00.098Z,91.5
2023-03-30T19:55:00.140Z,91.7
2023-03-30T20:00:00.215Z,91.8
2023-03-30T20:05:00.120Z,91.8
2023-03-30T20:10:00.121Z,91.9
2023-03-30T20:15:00.138Z,92
2023-03-30T20:20:00.115Z,91.8
2023-03-30T20:25:00.147Z,92.2
2023-03-30T20:30:00.168Z,92.2
2023-03-30T20:35:00.124Z,92.3
2023-03-30T20:40:02.442Z,92.6
2023-03-30T20:45:00.128Z,92.8
2023-03-30T20:50:00.144Z,92.5
2023-03-30T20:55:00.146Z,92.8
2023-03-30T21:00:00.173Z,92.8
2023-03-30T21:05:00.145Z,92.7
2023-03-30T21:10:00.160Z,92.5
2023-03-30T21:15:00.153Z,91.9
2023-03-30T21:20:00.134Z,92.1
2023-03-30T21:25:00.146Z,91.8
2023-03-30T21:30:00.472Z,91.5
2023-03-30T21:35:00.152Z,91.4
2023-03-30T21:40:00.158Z,91.2
2023-03-30T21:45:00.171Z,91
2023-03-30T21:50:00.117Z,91
2023-03-30T21:55:00.171Z,90.6
2023-03-30T22:00:00.182Z,90.9
2023-03-30T22:05:00.104Z,90.8
2023-03-30T22:10:00.151Z,90.7
2023-03-30T22:15:00.122Z,90.7
2023-03-30T22:20:00.159Z,90.6
2023-03-30T22:25:00.139Z,90.6
2023-03-30T22:30:00.159Z,90.5
2023-03-30T22:35:00.155Z,90.6
2023-03-30T22:40:00.111Z,90.8
2023-03-30T22:45:00.172Z,90.9
2023-03-30T22:50:00.132Z,90.9
2023-03-30T22:55:00.140Z,90.9
2023-03-30T23:00:00.216Z,91
2023-03-30T23:05:00.129Z,91
2023-03-30T23:10:00.138Z,91
2023-03-30T23:15:00.132Z,91
2023-03-30T23:20:00.155Z,91.1
2023-03-30T23:25:00.110Z,91.1
2023-03-30T23:30:00.180Z,91.1
2023-03-30T23:35:00.141Z,91.1
2023-03-30T23:40:00.149Z,91
2023-03-30T23:45:00.119Z,90.9
2023-03-30T23:50:00.114Z,90.8
2023-03-30T23:55:00.146Z,90.8
